createdAt,value
2023-03-26T00:04:52.917Z,97369.06
2023-03-26T00:09:58.764Z,97375.02
2023-03-26T00:15:04.178Z,97375.16
2023-03-26T00:20:10.749Z,97378.31
2023-03-26T00:25:15.659Z,97379.00
2023-03-26T00:30:20.727Z,97369.23
2023-03-26T00:35:25.475Z,97361.08
2023-03-26T00:40:31.832Z,97358.33
2023-03-26T00:45:37.166Z,97360.23
2023-03-26T00:50:42.702Z,97362.48
2023-03-26T00:55:48.083Z,97358.25
2023-03-26T01:00:57.148Z,97343.75
2023-03-26T01:06:07.723Z,97333.64
2023-03-26T01:11:15.011Z,97335.54
2023-03-26T01:16:21.701Z,97327.40
2023-03-26T01:21:29.610Z,97330.71
2023-03-26T01:26:40.005Z,97328.41
2023-03-26T01:31:50.291Z,97324.77
2023-03-26T01:36:58.389Z,97320.00
2023-03-26T01:42:08.267Z,97325.34
2023-03-26T01:47:13.899Z,97327.92
2023-03-26T01:52:20.159Z,97323.31
2023-03-26T01:57:31.319Z,97322.92
2023-03-26T02:02:41.310Z,97322.42
2023-03-26T02:07:50.813Z,97322.88
2023-03-26T02:12:56.199Z,97324.52
2023-03-26T02:18:01.675Z,97319.23
2023-03-26T02:23:06.620Z,97316.27
2023-03-26T02:28:11.595Z,97320.81
2023-03-26T02:33:17.020Z,97329.54
2023-03-26T02:38:25.016Z,97327.25
2023-03-26T02:43:29.995Z,97322.17
2023-03-26T02:48:36.155Z,97315.49
2023-03-26T02:53:40.933Z,97297.40
2023-03-26T02:58:46.604Z,97293.39
2023-03-26T03:03:51.484Z,97293.41
2023-03-26T03:08:56.694Z,97285.71
2023-03-26T03:14:01.703Z,97283.75
2023-03-26T03:19:06.674Z,97285.58
2023-03-26T03:24:13.596Z,97290.22
2023-03-26T03:29:18.522Z,97288.39
2023-03-26T03:34:23.167Z,97281.61
2023-03-26T03:39:28.037Z,97283.73
2023-03-26T03:44:32.859Z,97285.14
2023-03-26T03:49:37.820Z,97283.56
2023-03-26T03:54:42.589Z,97282.55
2023-03-26T03:59:47.938Z,97291.26
2023-03-26T04:04:54.008Z,97300.13
2023-03-26T04:10:00.365Z,97308.44
2023-03-26T04:15:05.772Z,97307.99
2023-03-26T04:20:15.413Z,97296.48
2023-03-26T04:25:21.096Z,97300.93
2023-03-26T04:30:27.010Z,97298.02
2023-03-26T04:35:34.044Z,97294.27
2023-03-26T04:40:39.081Z,97296.64
2023-03-26T04:45:45.548Z,97306.36
2023-03-26T04:50:50.865Z,97299.92
2023-03-26T04:55:57.384Z,97296.42
2023-03-26T05:01:10.248Z,97296.41
2023-03-26T05:06:17.395Z,97297.82
2023-03-26T05:11:21.996Z,97288.81
2023-03-26T05:16:27.069Z,97290.80
2023-03-26T05:21:32.096Z,97291.16
2023-03-26T05:26:37.325Z,97296.67
2023-03-26T05:31:42.504Z,97291.19
2023-03-26T05:36:48.337Z,97296.20
2023-03-26T05:41:53.894Z,97291.20
2023-03-26T05:46:59.269Z,97290.65
2023-03-26T05:52:03.759Z,97297.55
2023-03-26T05:57:08.261Z,97292.83
2023-03-26T06:02:13.421Z,97294.09
2023-03-26T06:07:18.298Z,97303.34
2023-03-26T06:12:23.068Z,97306.55
2023-03-26T06:17:27.752Z,97304.13
2023-03-26T06:22:32.445Z,97302.95
2023-03-26T06:27:36.998Z,97301.38
2023-03-26T06:32:42.329Z,97304.98
2023-03-26T06:37:47.298Z,97309.11
2023-03-26T06:43:09.668Z,97307.18
2023-03-26T06:48:16.338Z,97307.29
2023-03-26T06:53:21.218Z,97302.39
2023-03-26T06:58:26.705Z,97302.56
2023-03-26T07:03:31.920Z,97300.91
2023-03-26T07:08:36.680Z,97305.87
2023-03-26T07:13:41.766Z,97305.48
2023-03-26T07:18:46.560Z,97308.70
2023-03-26T07:23:52.627Z,97306.01
2023-03-26T07:29:04.851Z,97308.03
2023-03-26T07:34:17.577Z,97309.29
2023-03-26T07:39:31.850Z,97311.89
2023-03-26T07:44:47.718Z,97313.76
2023-03-26T07:49:53.638Z,97321.91
2023-03-26T07:54:58.875Z,97320.28
2023-03-26T08:00:12.020Z,97319.65
2023-03-26T08:05:20.808Z,97322.60
2023-03-26T08:10:28.596Z,97321.73
2023-03-26T08:15:37.636Z,97321.23
2023-03-26T08:20:45.838Z,97320.73
2023-03-26T08:25:54.649Z,97319.07
2023-03-26T08:31:02.871Z,97314.11
2023-03-26T08:36:08.539Z,97310.30
2023-03-26T08:41:32.981Z,97306.08
2023-03-26T08:46:58.724Z,97304.09
2023-03-26T08:52:21.524Z,97303.36
2023-03-26T08:57:34.629Z,97302.27
2023-03-26T09:03:00.579Z,97299.63
2023-03-26T09:08:21.078Z,97292.44
2023-03-26T09:13:47.257Z,97290.39
2023-03-26T09:19:09.767Z,97284.70
2023-03-26T09:24:31.316Z,97282.55
2023-03-26T09:29:51.046Z,97296.17
2023-03-26T09:35:13.091Z,97292.98
2023-03-26T09:40:22.148Z,97302.65
2023-03-26T09:45:40.909Z,97316.37
2023-03-26T09:50:56.199Z,97289.48
2023-03-26T09:56:15.552Z,97279.33
2023-03-26T10:01:26.094Z,97276.81
2023-03-26T10:06:37.582Z,97276.68
2023-03-26T10:11:56.410Z,97274.83
2023-03-26T10:17:05.338Z,97275.14
2023-03-26T10:22:17.461Z,97290.06
2023-03-26T10:27:31.018Z,97275.95
2023-03-26T10:32:43.920Z,97274.13
2023-03-26T10:37:59.648Z,97268.14
2023-03-26T10:43:21.900Z,97269.08
2023-03-26T10:48:42.357Z,97267.13
2023-03-26T10:53:50.426Z,97263.23
2023-03-26T10:58:57.230Z,97261.82
2023-03-26T11:04:06.585Z,97251.63
2023-03-26T11:09:18.806Z,97239.29
2023-03-26T11:14:34.339Z,97232.80
2023-03-26T11:19:44.989Z,97221.29
2023-03-26T11:25:10.270Z,97221.80
2023-03-26T11:30:19.961Z,97214.11
2023-03-26T11:35:40.858Z,97209.66
2023-03-26T11:40:50.450Z,97210.89
2023-03-26T11:45:55.786Z,97206.08
2023-03-26T11:51:03.955Z,97200.59
2023-03-26T11:56:14.514Z,97197.58
2023-03-26T12:01:22.483Z,97193.23
2023-03-26T12:06:28.794Z,97189.45
2023-03-26T12:11:35.516Z,97187.89
2023-03-26T12:16:57.577Z,97179.48
2023-03-26T12:22:02.519Z,97163.13
2023-03-26T12:27:21.321Z,97156.35
2023-03-26T12:32:35.531Z,97144.51
2023-03-26T12:37:48.402Z,97132.31
2023-03-26T12:44:55.339Z,97124.02
2023-03-26T12:48:19.262Z,97120.30
2023-03-26T12:53:34.804Z,97111.17
2023-03-26T12:58:51.153Z,97103.16
2023-03-26T13:04:08.314Z,97096.56
2023-03-26T13:09:25.505Z,97094.20
2023-03-26T13:14:44.720Z,97091.20
2023-03-26T13:19:53.672Z,97086.61
2023-03-26T13:25:00.409Z,97085.13
2023-03-26T13:30:11.041Z,97083.88
2023-03-26T13:35:21.311Z,97078.04
2023-03-26T13:40:27.303Z,97073.63
2023-03-26T13:45:41.550Z,97073.10
2023-03-26T13:50:52.395Z,97071.12
2023-03-26T13:55:58.230Z,97068.53
2023-03-26T14:01:07.049Z,97059.52
2023-03-26T14:06:15.502Z,97060.84
2023-03-26T14:11:21.838Z,97063.45
2023-03-26T14:16:30.413Z,97058.42
2023-03-26T14:21:42.531Z,97057.63
2023-03-26T14:26:59.200Z,97054.53
2023-03-26T14:32:26.167Z,97048.09
2023-03-26T14:37:40.018Z,97048.06
2023-03-26T14:42:55.146Z,97040.55
2023-03-26T14:48:14.545Z,97036.95
2023-03-26T14:53:24.800Z,97035.55
2023-03-26T14:58:48.182Z,97031.23
2023-03-26T15:04:09.345Z,97029.90
2023-03-26T15:09:31.778Z,97020.20
2023-03-26T15:15:06.212Z,97017.74
2023-03-26T15:20:36.867Z,97024.30
2023-03-26T15:25:58.399Z,97017.95
2023-03-26T15:31:20.836Z,97011.08
2023-03-26T15:36:39.428Z,97007.01
2023-03-26T15:41:47.460Z,96999.79
2023-03-26T15:46:59.988Z,96999.46
2023-03-26T15:52:14.974Z,96999.62
2023-03-26T15:57:26.054Z,97001.73
2023-03-26T16:02:37.753Z,97001.34
2023-03-26T16:07:58.546Z,96995.63
2023-03-26T16:13:21.342Z,96994.67
2023-03-26T16:18:33.777Z,96988.67
2023-03-26T16:23:54.799Z,96981.63
2023-03-26T16:29:13.940Z,96977.54
2023-03-26T16:34:26.880Z,96977.45
2023-03-26T16:39:41.938Z,96978.89
2023-03-26T16:44:52.227Z,96979.70
2023-03-26T16:50:08.394Z,96976.62
2023-03-26T16:55:19.470Z,96975.22
2023-03-26T17:00:41.011Z,96973.45
2023-03-26T17:05:57.428Z,96977.17
2023-03-26T17:11:04.932Z,96980.08
2023-03-26T17:16:13.938Z,96980.66
2023-03-26T17:21:22.164Z,96987.19
2023-03-26T17:26:29.955Z,96982.32
2023-03-26T17:31:40.825Z,96979.36
2023-03-26T17:36:56.506Z,96978.09
2023-03-26T17:42:18.515Z,96980.52
2023-03-26T17:47:32.229Z,96978.92
2023-03-26T17:52:47.811Z,96984.67
2023-03-26T17:57:53.927Z,96981.31
2023-03-26T18:03:01.918Z,96981.98
2023-03-26T18:08:17.086Z,96984.94
2023-03-26T18:13:41.899Z,96985.16
2023-03-26T18:18:50.428Z,96986.56
2023-03-26T18:23:55.284Z,96990.96
2023-03-26T18:29:13.656Z,96984.50
2023-03-26T18:34:19.778Z,96984.02
2023-03-26T18:39:24.788Z,96986.15
2023-03-26T18:44:29.846Z,96979.11
2023-03-26T18:49:35.018Z,96978.02
2023-03-26T18:54:40.237Z,96980.86
2023-03-26T18:59:45.581Z,96983.14
2023-03-26T19:04:53.964Z,96991.21
2023-03-26T19:10:01.106Z,96983.69
2023-03-26T19:15:07.426Z,96982.80
2023-03-26T19:20:16.896Z,96971.22
2023-03-26T19:25:22.745Z,96968.86
2023-03-26T19:30:30.175Z,96970.29
2023-03-26T19:35:38.779Z,96965.35
2023-03-26T19:40:53.166Z,96961.59
2023-03-26T19:46:01.260Z,96953.50
2023-03-26T19:51:06.835Z,96946.86
2023-03-26T19:56:15.008Z,96948.51
2023-03-26T20:01:20.689Z,96945.21
2023-03-26T20:06:41.657Z,96939.74
2023-03-26T20:11:48.265Z,96931.85
2023-03-26T20:16:53.481Z,96932.39
2023-03-26T20:21:57.935Z,96923.96
2023-03-26T20:27:02.713Z,96922.38
2023-03-26T20:32:17.757Z,96924.58
2023-03-26T20:37:22.725Z,96923.92
2023-03-26T20:42:27.290Z,96917.04
2023-03-26T20:47:31.913Z,96906.64
2023-03-26T20:52:36.524Z,96896.86
2023-03-26T20:57:42.653Z,96891.43
2023-03-26T21:02:47.583Z,96884.61
2023-03-26T21:07:53.099Z,96887.04
2023-03-26T21:12:59.216Z,96878.52
2023-03-26T21:18:04.952Z,96874.42
2023-03-26T21:23:13.836Z,96866.05
2023-03-26T21:28:29.053Z,96865.19
2023-03-26T21:33:40.767Z,96863.11
2023-03-26T21:38:46.734Z,96869.66
2023-03-26T21:43:51.549Z,96866.63
2023-03-26T21:48:56.668Z,96860.45
2023-03-26T21:54:01.905Z,96859.85
2023-03-26T21:59:13.113Z,96854.21
2023-03-26T22:04:19.537Z,96852.47
2023-03-26T22:09:33.840Z,96856.61
2023-03-26T22:14:41.576Z,96849.40
2023-03-26T22:19:46.365Z,96844.10
2023-03-26T22:24:51.486Z,96839.34
2023-03-26T22:29:56.765Z,96839.10
2023-03-26T22:35:01.822Z,96840.20
2023-03-26T22:40:08.030Z,96838.86
2023-03-26T22:45:13.189Z,96834.48
2023-03-26T22:50:18.387Z,96827.46
2023-03-26T22:55:28.493Z,96834.50
2023-03-26T23:00:35.919Z,96823.75
2023-03-26T23:05:40.709Z,96812.71
2023-03-26T23:10:45.763Z,96809.29
2023-03-26T23:15:50.807Z,96807.48
2023-03-26T23:20:56.573Z,96806.72
2023-03-26T23:26:02.738Z,96804.83
2023-03-26T23:31:09.473Z,96799.46
2023-03-26T23:36:14.525Z,96791.31
2023-03-26T23:41:21.147Z,96782.23
2023-03-26T23:46:30.178Z,96778.13
2023-03-26T23:51:36.321Z,96778.86
2023-03-26T23:56:41.060Z,96768.60
